Time;durP1;ratioP1;P1;durP2;ratioP2;P2;SDS_P1;SDS_P2;PMS_P1;PMS_P2;Temp;Humidity;BMP_temperature;BMP_pressure;BME280_temperature;BME280_humidity;BME280_pressure;Samples;Min_cycle;Max_cycle;Signal;HPM_P1;HPM_P2
2022/09/16 00:03:11;;;;;;;;;;;;;;;24.17;55.66;99408.16;20726291;28;20041;-79
2022/09/16 00:13:12;;;;;;;2.63;2.10;;;;;;;24.19;55.84;99387.63;20704137;28;19928;-80
2022/09/16 00:23:13;;;;;;;2.37;1.73;;;;;;;24.19;56.09;99414.09;20711931;28;20115;-80
2022/09/16 00:33:14;;;;;;;2.10;1.97;;;;;;;24.17;55.98;99413.44;20692675;28;20050;-78
2022/09/16 00:43:18;;;;;;;2.55;1.77;;;;;;;24.17;56.01;99418.72;20703226;28;20045;-79
2022/09/16 00:53:22;;;;;;;1.88;1.77;;;;;;;24.17;55.94;99429.31;20713314;28;20674;-80
2022/09/16 01:03:24;;;;;;;2.00;1.70;;;;;;;24.16;55.88;99440.03;20715514;28;20033;-79
2022/09/16 01:13:28;;;;;;;1.85;1.60;;;;;;;24.13;55.75;99451.75;20694909;28;20041;-79
2022/09/16 01:23:40;;;;;;;1.92;1.70;;;;;;;24.14;55.90;99437.53;20719382;28;20171;-79
2022/09/16 01:34:18;;;;;;;1.48;1.38;;;;;;;24.08;55.64;99465.50;20699011;28;20137;-80
2022/09/16 01:44:38;;;;;;;1.83;1.63;;;;;;;24.09;55.46;99474.22;20691769;28;20056;-80
2022/09/16 01:54:42;;;;;;;1.40;1.30;;;;;;;24.08;55.83;99462.84;20693790;28;20121;-80
2022/09/16 02:04:48;;;;;;;1.50;1.23;;;;;;;24.06;55.76;99450.75;20703012;28;20047;-79
2022/09/16 02:14:52;;;;;;;1.45;1.35;;;;;;;24.06;55.56;99459.53;20683800;28;20065;-79
2022/09/16 02:24:53;;;;;;;1.42;1.30;;;;;;;24.04;55.60;99461.50;20707848;28;20034;-77
2022/09/16 02:34:56;;;;;;;2.15;1.60;;;;;;;24.03;55.55;99470.41;20682744;28;20048;-77
2022/09/16 02:45:02;;;;;;;1.40;1.30;;;;;;;24.03;55.55;99485.47;20694186;28;20042;-79
2022/09/16 02:55:50;;;;;;;1.20;1.10;;;;;;;23.98;55.56;99510.53;20686519;28;20496;-79
2022/09/16 03:06:06;;;;;;;2.28;1.50;;;;;;;24.00;55.38;99499.81;20691894;28;20108;-79
2022/09/16 03:16:16;;;;;;;1.48;1.38;;;;;;;23.97;55.73;99503.63;20712811;28;20140;-79
2022/09/16 03:26:24;;;;;;;1.10;1.10;;;;;;;23.95;55.54;99496.84;20708789;28;20390;-80
2022/09/16 03:36:32;;;;;;;1.30;1.20;;;;;;;23.97;55.48;99513.34;20705520;28;20045;-82
2022/09/16 03:46:32;;;;;;;1.35;1.25;;;;;;;23.96;55.60;99522.28;20707922;28;20042;-79
2022/09/16 03:56:34;;;;;;;1.30;1.20;;;;;;;23.95;55.32;99525.94;20703071;28;20396;-78
2022/09/16 04:06:34;;;;;;;1.30;1.20;;;;;;;23.99;55.12;99524.59;20709748;28;20466;-78
2022/09/16 04:16:35;;;;;;;1.48;1.38;;;;;;;23.96;55.07;99541.63;20695532;28;20054;-78
2022/09/16 04:26:35;;;;;;;1.48;1.38;;;;;;;24.05;55.44;99534.56;20703652;28;20501;-79
2022/09/16 04:36:36;;;;;;;2.72;1.67;;;;;;;24.06;55.67;99538.84;20720705;28;20083;-81
2022/09/16 04:46:36;;;;;;;2.90;1.60;;;;;;;24.12;56.08;99530.28;20713352;28;20062;-84
2022/09/16 04:56:37;;;;;;;2.83;2.47;;;;;;;23.96;54.67;99538.13;20708861;28;20056;-80
2022/09/16 05:06:40;;;;;;;3.93;2.77;;;;;;;23.88;51.66;99543.38;20693476;28;20042;-81
2022/09/16 05:16:40;;;;;;;5.22;3.85;;;;;;;23.44;49.57;99547.72;20705539;28;20050;-86
2022/09/16 05:26:42;;;;;;;5.65;4.20;;;;;;;23.22;49.16;99540.25;20694044;28;20564;-84
2022/09/16 05:36:43;;;;;;;10.33;4.43;;;;;;;23.09;48.99;99559.13;20702128;28;20096;-85
2022/09/16 05:46:44;;;;;;;8.35;4.10;;;;;;;22.98;48.79;99545.16;20706789;28;20283;-86
2022/09/16 05:56:45;;;;;;;6.75;4.05;;;;;;;22.97;49.17;99556.72;20697857;28;20053;-83
2022/09/16 06:06:46;;;;;;;4.80;3.33;;;;;;;23.06;49.04;99549.69;20719686;28;20046;-84
2022/09/16 06:16:47;;;;;;;4.90;2.55;;;;;;;23.22;50.27;99553.47;20735925;28;20088;-84
2022/09/16 06:26:48;;;;;;;5.37;2.83;;;;;;;23.31;51.12;99568.41;20739189;28;20038;-86
2022/09/16 06:36:48;;;;;;;3.43;2.63;;;;;;;23.42;51.72;99549.66;20753035;28;20049;-85
2022/09/16 06:46:49;;;;;;;3.83;2.60;;;;;;;23.47;52.25;99544.78;20744549;28;20105;-86
2022/09/16 06:56:49;;;;;;;4.10;2.40;;;;;;;23.55;52.20;99559.03;20742845;28;20129;-84
2022/09/16 07:06:50;;;;;;;4.07;2.60;;;;;;;23.58;52.46;99564.84;20730863;28;20459;-83
2022/09/16 07:16:51;;;;;;;3.80;2.60;;;;;;;23.66;52.37;99571.97;20733366;28;20069;-83
2022/09/16 07:26:51;;;;;;;6.63;2.30;;;;;;;23.69;52.58;99576.94;20734934;28;20037;-87
2022/09/16 07:36:52;;;;;;;4.35;2.30;;;;;;;23.74;52.19;99581.75;20756521;28;20760;-86
2022/09/16 07:46:54;;;;;;;3.10;2.30;;;;;;;23.79;52.52;99596.19;20743301;28;20042;-86
2022/09/16 07:56:56;;;;;;;6.60;2.50;;;;;;;23.85;52.56;99599.19;20764202;28;20045;-82
2022/09/16 08:06:56;;;;;;;3.90;2.70;;;;;;;23.91;52.65;99610.00;20759747;28;20054;-84
2022/09/16 08:16:56;;;;;;;9.30;3.17;;;;;;;23.89;51.62;99616.38;20762510;28;20200;-78
2022/09/16 08:26:57;;;;;;;10.93;3.28;;;;;;;23.93;51.97;99618.59;20754246;28;20038;-81
2022/09/16 08:36:57;;;;;;;6.78;3.33;;;;;;;23.19;47.89;99610.06;20738973;28;20108;-81
2022/09/16 08:47:01;;;;;;;5.35;2.95;;;;;;;23.60;48.74;99615.69;20738304;28;20046;-80
2022/09/16 08:57:04;;;;;;;5.47;2.70;;;;;;;23.68;49.17;99604.38;20758702;28;20037;-82
2022/09/16 09:07:31;;;;;;;6.75;3.05;;;;;;;23.77;50.36;99629.06;20755354;28;20046;-81
2022/09/16 09:17:40;;;;;;;4.75;2.83;;;;;;;23.81;50.18;99628.59;20743218;28;20038;-79
2022/09/16 09:27:56;;;;;;;3.92;2.63;;;;;;;23.84;50.25;99616.88;20750192;28;20038;-83
2022/09/16 09:38:07;;;;;;;3.00;2.60;;;;;;;23.88;50.35;99620.84;20763909;28;20400;-81
2022/09/16 09:48:11;;;;;;;3.97;2.67;;;;;;;23.93;50.31;99620.44;20750113;28;20077;-81
2022/09/16 09:58:37;;;;;;;2.40;2.20;;;;;;;23.96;50.33;99617.47;20748167;28;20045;-82
2022/09/16 10:08:45;;;;;;;4.60;2.45;;;;;;;24.01;50.16;99585.25;20749700;28;20045;-81
2022/09/16 10:19:05;;;;;;;2.92;2.22;;;;;;;23.99;50.14;99598.66;20748348;28;20045;-79
2022/09/16 10:29:20;;;;;;;2.50;2.30;;;;;;;24.00;50.07;99589.72;20741241;28;20049;-81
2022/09/16 10:39:24;;;;;;;2.92;2.13;;;;;;;24.04;49.40;99591.06;20737568;28;20100;-80
2022/09/16 10:49:43;;;;;;;4.00;2.58;;;;;;;24.04;49.80;99580.50;20739690;28;20037;-80
2022/09/16 11:00:00;;;;;;;5.72;2.17;;;;;;;23.76;43.29;99590.38;20744817;28;20132;-81
2022/09/16 11:10:46;;;;;;;2.28;1.83;;;;;;;23.59;41.78;99592.91;20749162;28;20085;-80
2022/09/16 11:21:02;;;;;;;3.72;1.90;;;;;;;23.46;40.33;99592.47;20671249;28;20050;-80
2022/09/16 11:31:30;;;;;;;4.53;1.25;;;;;;;23.21;37.67;99581.69;20740931;28;20046;-80
2022/09/16 11:42:03;;;;;;;3.13;1.50;;;;;;;22.96;37.89;99570.03;20755787;28;20508;-80
2022/09/16 11:52:07;;;;;;;6.90;1.73;;;;;;;23.09;38.09;99557.28;20724310;28;20104;-79
2022/09/16 12:02:23;;;;;;;5.20;1.15;;;;;;;23.03;37.74;99547.34;20747063;28;20103;-81
2022/09/16 12:12:39;;;;;;;1.98;1.55;;;;;;;23.01;37.79;99542.22;20734131;28;20050;-79
2022/09/16 12:22:46;;;;;;;3.70;2.28;;;;;;;22.98;37.73;99539.06;20752479;28;20609;-78
2022/09/16 12:32:59;;;;;;;6.63;1.60;;;;;;;22.90;39.34;99531.91;20732221;28;20050;-80
2022/09/16 12:43:25;;;;;;;1.75;1.30;;;;;;;22.92;39.15;99518.53;20709639;28;20443;-80
2022/09/16 12:53:50;;;;;;;3.80;1.95;;;;;;;23.00;40.07;99515.97;20700333;28;20046;-79
2022/09/16 13:03:56;;;;;;;4.03;1.75;;;;;;;23.18;41.34;99505.44;20735045;28;20045;-82
2022/09/16 13:13:58;;;;;;;5.55;1.83;;;;;;;23.34;42.71;99499.44;20749294;28;20042;-82
2022/09/16 13:24:13;;;;;;;6.57;2.20;;;;;;;23.46;43.07;99506.13;20739711;28;20041;-80
2022/09/16 13:34:17;;;;;;;8.35;2.50;;;;;;;23.57;44.78;99501.53;20729613;28;20117;-86
2022/09/16 13:44:37;;;;;;;3.83;2.10;;;;;;;23.63;45.60;99477.97;20750057;28;20049;-87
2022/09/16 13:54:46;;;;;;;5.60;2.15;;;;;;;23.69;46.25;99470.41;20732947;28;20501;-88
2022/09/16 14:05:23;;;;;;;9.27;2.78;;;;;;;23.74;46.24;99468.94;20755495;28;20046;-86
2022/09/16 14:15:24;;;;;;;5.22;2.47;;;;;;;23.83;46.61;99460.06;20735449;28;20069;-86
2022/09/16 14:25:28;;;;;;;13.00;2.47;;;;;;;23.74;44.65;99462.81;20738819;28;20688;-80
2022/09/16 14:35:29;;;;;;;4.70;2.30;;;;;;;23.79;45.13;99455.25;20726187;28;20354;-76
2022/09/16 14:45:31;;;;;;;3.00;1.90;;;;;;;23.79;45.06;99455.25;20738935;28;20050;-84
2022/09/16 14:55:39;;;;;;;8.00;1.95;;;;;;;23.87;46.41;99428.84;20721316;28;20128;-85
2022/09/16 15:05:43;;;;;;;7.00;1.80;;;;;;;23.91;47.02;99421.41;20716267;28;20038;-84
2022/09/16 15:15:49;;;;;;;10.10;2.30;;;;;;;23.81;46.64;99427.69;20747594;28;20528;-86
2022/09/16 15:25:57;;;;;;;12.50;2.47;;;;;;;23.79;47.26;99455.25;20759641;28;20052;-87
2022/09/16 15:35:57;;;;;;;13.50;2.00;;;;;;;23.76;47.48;99448.47;20742363;28;20133;-88
2022/09/16 15:46:01;;;;;;;3.92;1.60;;;;;;;23.74;47.39;99431.09;20738841;28;20121;-87
2022/09/16 15:56:05;;;;;;;2.42;1.58;;;;;;;23.73;47.78;99458.50;20756011;28;20405;-87
2022/09/16 16:06:05;;;;;;;4.13;1.60;;;;;;;23.70;47.86;99438.53;20740891;28;20092;-86
2022/09/16 16:16:07;;;;;;;2.17;1.70;;;;;;;23.69;47.92;99441.31;20750414;28;20413;-87
2022/09/16 16:26:09;;;;;;;3.00;1.63;;;;;;;23.64;47.84;99434.72;20753586;28;20038;-86
2022/09/16 16:36:13;;;;;;;2.78;1.52;;;;;;;23.60;47.97;99422.78;20751415;28;20042;-86
2022/09/16 16:46:14;;;;;;;1.88;1.40;;;;;;;23.62;48.24;99418.19;20753679;28;20053;-86
2022/09/16 16:56:14;;;;;;;2.75;1.73;;;;;;;23.62;48.05;99410.25;20743734;28;20533;-87
2022/09/16 17:06:16;;;;;;;2.55;1.55;;;;;;;23.60;48.04;99406.94;20752120;28;20042;-86
2022/09/16 17:16:19;;;;;;;2.17;1.60;;;;;;;23.57;48.43;99396.69;20750346;28;20042;-87
2022/09/16 17:26:21;;;;;;;1.50;1.40;;;;;;;23.58;48.19;99389.59;20738019;28;20038;-87
2022/09/16 17:36:25;;;;;;;2.70;1.57;;;;;;;23.55;48.42;99396.00;20750584;28;20412;-88
2022/09/16 17:46:26;;;;;;;1.73;1.45;;;;;;;23.57;48.31;99394.06;20747483;28;20124;-87
2022/09/16 17:56:26;;;;;;;2.83;1.30;;;;;;;23.55;48.50;99416.34;20742187;28;20501;-87
2022/09/16 18:06:34;;;;;;;1.70;1.30;;;;;;;23.53;48.60;99413.00;20744220;28;20049;-86
2022/09/16 18:16:36;;;;;;;1.42;1.13;;;;;;;23.54;48.74;99419.97;20745020;28;20083;-87
2022/09/16 18:26:37;;;;;;;2.17;1.60;;;;;;;23.53;48.72;99418.31;20746093;28;20037;-88
2022/09/16 18:36:38;;;;;;;4.30;1.37;;;;;;;23.54;48.65;99419.97;20747060;28;20113;-87
2022/09/16 18:46:39;;;;;;;1.50;1.23;;;;;;;23.53;48.79;99426.22;20744003;28;20046;-88
2022/09/16 18:56:41;;;;;;;2.33;1.47;;;;;;;23.52;48.78;99412.16;20739890;28;20046;-86
2022/09/16 19:06:46;;;;;;;1.40;1.23;;;;;;;23.52;48.63;99412.16;20744501;28;22110;-87
2022/09/16 19:16:50;;;;;;;1.20;1.10;;;;;;;23.53;48.67;99391.88;20756969;28;20485;-86
2022/09/16 19:26:52;;;;;;;1.88;1.27;;;;;;;23.52;48.87;99422.75;20743574;28;20405;-87
2022/09/16 19:36:55;;;;;;;1.20;1.10;;;;;;;23.50;49.15;99432.66;20745392;28;20587;-88
2022/09/16 19:46:55;;;;;;;1.38;1.00;;;;;;;23.49;48.98;99434.47;20756498;28;20124;-87
2022/09/16 19:56:56;;;;;;;1.48;1.27;;;;;;;23.48;48.98;99409.00;20753936;28;20452;-88
2022/09/16 20:06:56;;;;;;;1.30;1.20;;;;;;;23.46;49.13;99412.81;20752178;28;20034;-88
2022/09/16 20:16:56;;;;;;;1.25;1.08;;;;;;;23.46;49.06;99426.84;20751988;28;20087;-87
2022/09/16 20:26:57;;;;;;;1.50;1.20;;;;;;;23.47;49.08;99414.47;20768525;28;20038;-86
2022/09/16 20:36:58;;;;;;;1.77;1.23;;;;;;;23.45;48.99;99419.09;20752266;28;20041;-88
2022/09/16 20:46:59;;;;;;;1.50;1.30;;;;;;;23.43;49.02;99429.81;20750738;28;20412;-88
2022/09/16 20:56:59;;;;;;;1.83;1.48;;;;;;;23.44;48.96;99444.66;20736287;28;20060;-88
2022/09/16 21:07:00;;;;;;;1.30;1.20;;;;;;;23.44;49.14;99460.53;20762077;28;20046;-87
2022/09/16 21:17:01;;;;;;;1.30;1.20;;;;;;;23.44;49.07;99457.06;20740423;28;20067;-88
2022/09/16 21:27:01;;;;;;;1.48;1.38;;;;;;;23.44;49.25;99462.34;20747500;28;20066;-87
2022/09/16 21:37:04;;;;;;;2.30;1.50;;;;;;;23.42;49.24;99477.53;20733239;28;20042;-87
2022/09/16 21:47:10;;;;;;;2.15;1.63;;;;;;;23.42;49.23;99478.34;20745997;28;20505;-87
2022/09/16 21:57:10;;;;;;;2.70;1.95;;;;;;;23.37;49.32;99467.41;20735952;28;20042;-87
2022/09/16 22:07:10;;;;;;;2.10;1.90;;;;;;;23.39;49.15;99470.75;20747118;28;20155;-85
2022/09/16 22:17:12;;;;;;;2.22;2.03;;;;;;;23.39;49.33;99491.03;20757518;28;20049;-85
2022/09/16 22:27:14;;;;;;;2.10;1.80;;;;;;;23.40;49.24;99509.38;20755904;28;20419;-86
2022/09/16 22:37:14;;;;;;;1.70;1.60;;;;;;;23.37;49.24;99525.53;20741536;28;20120;-86
2022/09/16 22:47:15;;;;;;;2.40;2.00;;;;;;;23.39;49.49;99534.13;20738736;28;20034;-88
2022/09/16 22:57:15;;;;;;;2.03;1.85;;;;;;;23.38;49.44;99543.03;20738522;28;20131;-88
2022/09/16 23:07:19;;;;;;;2.38;1.98;;;;;;;23.37;49.05;99528.19;20737302;28;20176;-88
2022/09/16 23:17:21;;;;;;;2.30;2.10;;;;;;;23.38;49.32;99529.03;20754205;28;20057;-88
2022/09/16 23:27:22;;;;;;;3.08;2.53;;;;;;;23.37;49.31;99527.34;20753554;28;20049;-87
2022/09/16 23:37:23;;;;;;;2.50;2.30;;;;;;;23.35;49.33;99506.34;20745707;28;20160;-88
2022/09/16 23:47:24;;;;;;;2.77;2.20;;;;;;;23.32;49.28;99470.50;20755918;28;20112;-86
2022/09/16 23:57:26;;;;;;;2.72;2.10;;;;;;;23.33;49.26;99463.44;20768873;28;20070;-86
